Time;durP1;ratioP1;P1;durP2;ratioP2;P2;SDS_P1;SDS_P2;PMS_P1;PMS_P2;Temp;Humidity;BMP_temperature;BMP_pressure;BME280_temperature;BME280_humidity;BME280_pressure;Samples;Min_cycle;Max_cycle;Signal;HPM_P1;HPM_P2
2022/06/27 00:01:25;;;;;;;10.85;6.78;;;21.00;99.90;;;;;;5021570;28;20871;-84
2022/06/27 00:03:53;;;;;;;14.17;7.40;;;21.00;99.90;;;;;;5031664;28;20883;-84
2022/06/27 00:06:21;;;;;;;9.40;6.78;;;21.00;99.90;;;;;;5011017;28;20449;-83
2022/06/27 00:08:49;;;;;;;10.75;6.68;;;20.90;99.90;;;;;;5010674;28;20418;-84
2022/06/27 00:11:18;;;;;;;11.80;7.03;;;20.90;99.90;;;;;;5012263;28;20407;-84
2022/06/27 00:13:46;;;;;;;11.60;7.43;;;20.90;99.90;;;;;;5027556;28;20518;-84
2022/06/27 00:16:14;;;;;;;8.63;7.03;;;20.90;99.90;;;;;;5027465;28;20399;-84
2022/06/27 00:19:02;;;;;;;11.32;6.95;;;20.90;99.90;;;;;;5024286;28;20391;-83
2022/06/27 00:21:29;;;;;;;13.20;7.05;;;20.80;99.90;;;;;;5045962;28;20442;-83
2022/06/27 00:23:57;;;;;;;11.77;6.43;;;20.80;99.90;;;;;;5030243;28;20393;-84
2022/06/27 00:26:24;;;;;;;9.15;6.15;;;20.70;99.90;;;;;;5031352;28;20393;-84
2022/06/27 00:28:52;;;;;;;11.85;6.80;;;20.70;99.90;;;;;;4994043;28;20862;-84
2022/06/27 00:31:20;;;;;;;10.00;7.18;;;20.70;99.90;;;;;;5005242;28;20431;-84
2022/06/27 00:33:47;;;;;;;9.07;7.05;;;20.70;99.90;;;;;;5014289;28;20444;-83
2022/06/27 00:36:18;;;;;;;10.85;6.85;;;20.70;99.90;;;;;;5030950;28;20396;-84
2022/06/27 00:38:45;;;;;;;10.57;7.35;;;20.60;99.90;;;;;;5045837;28;20400;-84
2022/06/27 00:41:13;;;;;;;9.85;6.50;;;20.60;99.90;;;;;;5030749;28;20389;-84
2022/06/27 00:43:44;;;;;;;11.40;6.90;;;20.50;99.90;;;;;;5013320;28;20904;-84
2022/06/27 00:46:12;;;;;;;14.13;7.30;;;20.50;99.90;;;;;;5013727;28;20764;-84
2022/06/27 00:48:40;;;;;;;12.90;7.00;;;20.60;99.90;;;;;;5013545;28;20385;-83
2022/06/27 00:51:10;;;;;;;11.00;7.07;;;20.50;99.90;;;;;;5031072;28;20433;-83
2022/06/27 00:53:38;;;;;;;9.75;6.55;;;20.50;99.90;;;;;;5013615;28;20776;-84
2022/06/27 00:56:05;;;;;;;14.85;6.95;;;20.40;99.90;;;;;;5030954;28;20373;-84
2022/06/27 00:58:33;;;;;;;13.00;6.70;;;20.40;99.90;;;;;;5010742;28;20806;-84
2022/06/27 01:01:01;;;;;;;10.90;6.97;;;20.40;99.90;;;;;;5010440;28;20395;-84
2022/06/27 01:03:29;;;;;;;9.85;6.55;;;20.40;99.90;;;;;;5026921;28;20410;-84
2022/06/27 01:05:57;;;;;;;10.38;6.85;;;20.40;99.90;;;;;;5026979;28;20770;-83
2022/06/27 01:08:27;;;;;;;11.63;6.80;;;20.40;99.90;;;;;;5010728;28;20402;-83
2022/06/27 01:10:55;;;;;;;8.40;6.35;;;20.40;99.90;;;;;;5034468;28;20419;-82
2022/06/27 01:13:23;;;;;;;11.07;6.22;;;20.30;99.90;;;;;;5017625;28;20389;-84
2022/06/27 01:15:52;;;;;;;10.23;6.53;;;20.30;99.90;;;;;;5034328;28;20396;-83
2022/06/27 01:18:20;;;;;;;10.18;7.10;;;20.30;99.90;;;;;;5035103;28;20393;-85
2022/06/27 01:20:48;;;;;;;9.65;6.63;;;20.30;99.90;;;;;;5017244;28;20485;-84
2022/06/27 01:23:15;;;;;;;8.23;6.50;;;20.20;99.90;;;;;;5017332;28;20385;-83
2022/06/27 01:25:44;;;;;;;13.93;6.70;;;20.20;99.90;;;;;;5034926;28;20476;-84
2022/06/27 01:28:12;;;;;;;10.15;6.63;;;20.20;99.90;;;;;;5017265;28;20400;-84
2022/06/27 01:30:40;;;;;;;10.40;6.50;;;20.20;99.90;;;;;;5016847;28;20393;-84
2022/06/27 01:33:07;;;;;;;8.55;6.45;;;20.10;99.90;;;;;;5017573;28;20941;-84
2022/06/27 01:35:37;;;;;;;11.07;6.80;;;20.10;99.90;;;;;;5016979;28;20386;-84
2022/06/27 01:38:06;;;;;;;11.48;6.78;;;20.10;99.90;;;;;;5029767;28;20409;-84
2022/06/27 01:40:34;;;;;;;12.40;6.72;;;20.10;99.90;;;;;;5006677;28;20402;-84
2022/06/27 01:43:03;;;;;;;9.20;6.18;;;20.10;99.90;;;;;;5033832;28;20405;-84
2022/06/27 01:45:33;;;;;;;10.43;6.22;;;20.00;99.90;;;;;;5033485;28;20478;-85
2022/06/27 01:48:02;;;;;;;9.25;6.53;;;20.00;99.90;;;;;;5033925;28;20436;-84
2022/06/27 01:50:31;;;;;;;9.80;6.60;;;20.00;99.90;;;;;;5016542;28;20494;-84
2022/06/27 01:53:00;;;;;;;8.18;6.55;;;20.00;99.90;;;;;;5049627;28;20401;-84
2022/06/27 01:55:28;;;;;;;8.55;6.70;;;19.90;99.90;;;;;;5016790;28;20393;-84
2022/06/27 01:57:56;;;;;;;10.45;6.70;;;19.90;99.90;;;;;;5049726;28;20397;-84
2022/06/27 02:00:25;;;;;;;8.77;6.10;;;19.90;99.90;;;;;;5016723;28;20464;-84
2022/06/27 02:02:58;;;;;;;8.25;6.03;;;19.90;99.90;;;;;;5029145;28;20387;-83
2022/06/27 02:05:34;;;;;;;11.93;6.50;;;19.90;99.90;;;;;;5030005;28;20454;-84
2022/06/27 02:08:03;;;;;;;7.65;6.28;;;19.90;99.90;;;;;;5042860;28;20393;-84
2022/06/27 02:10:32;;;;;;;9.25;5.82;;;19.90;99.90;;;;;;5016208;28;20429;-84
2022/06/27 02:13:00;;;;;;;11.73;6.47;;;19.90;99.90;;;;;;5049300;28;20934;-84
2022/06/27 02:15:29;;;;;;;13.18;6.70;;;19.80;99.90;;;;;;5013819;28;20386;-84
2022/06/27 02:17:57;;;;;;;9.90;6.28;;;19.80;99.90;;;;;;5028973;28;20428;-84
2022/06/27 02:20:26;;;;;;;12.70;6.53;;;19.80;99.90;;;;;;5004039;28;20422;-84
2022/06/27 02:22:54;;;;;;;11.20;6.55;;;19.80;99.90;;;;;;5013159;28;20399;-85
2022/06/27 02:25:22;;;;;;;9.75;6.38;;;19.80;99.90;;;;;;4996713;28;20418;-84
2022/06/27 02:27:53;;;;;;;7.53;6.20;;;19.80;99.90;;;;;;5029583;28;20403;-84
2022/06/27 02:30:21;;;;;;;7.57;6.38;;;19.80;99.90;;;;;;5014267;28;20490;-84
2022/06/27 02:32:49;;;;;;;8.48;6.32;;;19.80;99.90;;;;;;5012742;28;20421;-84
2022/06/27 02:35:19;;;;;;;9.38;6.80;;;19.80;99.90;;;;;;5029319;28;20952;-84
2022/06/27 02:37:47;;;;;;;10.57;6.30;;;19.80;99.90;;;;;;5012418;28;20824;-84
2022/06/27 02:40:16;;;;;;;11.27;6.90;;;19.80;99.90;;;;;;5043086;28;20395;-85
2022/06/27 02:42:44;;;;;;;10.32;7.10;;;19.70;99.90;;;;;;5012342;28;20885;-85
2022/06/27 02:45:14;;;;;;;8.98;6.10;;;19.70;99.90;;;;;;5013855;28;21132;-85
2022/06/27 02:47:47;;;;;;;8.98;5.93;;;19.80;99.90;;;;;;5010822;28;20406;-85
2022/06/27 02:50:15;;;;;;;7.13;5.90;;;19.80;99.90;;;;;;4997893;28;20396;-84
2022/06/27 02:52:47;;;;;;;8.88;6.32;;;19.80;99.90;;;;;;5009043;28;20442;-85
2022/06/27 02:55:19;;;;;;;9.30;6.53;;;19.80;99.90;;;;;;4992959;28;20405;-84
2022/06/27 02:58:02;;;;;;;9.27;6.50;;;19.80;99.90;;;;;;4993016;28;20393;-84
2022/06/27 03:00:35;;;;;;;8.82;6.32;;;19.90;99.90;;;;;;5008689;28;20409;-84
2022/06/27 03:03:05;;;;;;;6.88;6.25;;;19.80;99.90;;;;;;5009107;28;20400;-83
2022/06/27 03:06:04;;;;;;;8.30;6.68;;;19.90;99.90;;;;;;4994006;28;20396;-84
2022/06/27 03:08:46;;;;;;;7.30;6.13;;;19.90;99.90;;;;;;5009040;28;20404;-84
2022/06/27 03:11:24;;;;;;;8.60;6.88;;;19.90;99.90;;;;;;5011812;28;20397;-82
2022/06/27 03:13:53;;;;;;;9.88;7.00;;;19.90;99.90;;;;;;5012163;28;20387;-84
2022/06/27 03:16:23;;;;;;;9.90;6.35;;;19.90;99.90;;;;;;5011896;28;20396;-83
2022/06/27 03:18:52;;;;;;;9.32;5.80;;;19.90;99.90;;;;;;5011958;28;20399;-83
2022/06/27 03:21:41;;;;;;;8.07;6.20;;;19.90;99.90;;;;;;5044946;28;20894;-85
2022/06/27 03:24:09;;;;;;;8.65;6.10;;;19.90;99.90;;;;;;5011620;28;20395;-84
2022/06/27 03:26:41;;;;;;;8.05;6.45;;;19.90;99.90;;;;;;5012034;28;20383;-84
2022/06/27 03:29:09;;;;;;;8.32;6.20;;;19.90;99.90;;;;;;5028504;28;20445;-84
2022/06/27 03:31:39;;;;;;;7.53;6.60;;;20.00;99.90;;;;;;5011728;28;20418;-84
2022/06/27 03:34:09;;;;;;;9.70;6.40;;;20.00;99.90;;;;;;5011998;28;20869;-83
2022/06/27 03:36:47;;;;;;;7.90;6.65;;;20.00;99.90;;;;;;5012089;28;20445;-83
2022/06/27 03:39:15;;;;;;;9.02;6.05;;;20.00;99.90;;;;;;5044481;28;20405;-83
2022/06/27 03:41:44;;;;;;;7.82;6.65;;;20.00;99.90;;;;;;5008006;28;20488;-84
2022/06/27 03:44:12;;;;;;;7.47;6.30;;;20.00;99.90;;;;;;4992062;28;20851;-83
2022/06/27 03:46:45;;;;;;;9.80;6.30;;;20.00;99.90;;;;;;4992041;28;20399;-82
2022/06/27 03:52:05;;;;;;;10.13;6.15;;;20.00;99.90;;;;;;5001869;28;20417;-84
2022/06/27 03:54:32;;;;;;;9.60;6.20;;;20.00;99.90;;;;;;5040610;28;20395;-84
2022/06/27 03:57:00;;;;;;;7.85;6.55;;;20.00;99.90;;;;;;5011285;28;20391;-84
2022/06/27 03:59:27;;;;;;;8.27;6.03;;;19.90;99.90;;;;;;5035909;28;20451;-84
2022/06/27 04:01:55;;;;;;;8.73;6.50;;;19.90;99.90;;;;;;5016667;28;20442;-84
2022/06/27 04:04:28;;;;;;;8.90;6.10;;;20.00;99.90;;;;;;5040631;28;20410;-84
2022/06/27 04:06:56;;;;;;;7.78;6.00;;;20.00;99.90;;;;;;5044318;28;20395;-84
2022/06/27 04:09:24;;;;;;;6.53;5.85;;;20.00;99.90;;;;;;5043902;28;20399;-84
2022/06/27 04:11:52;;;;;;;7.83;6.20;;;20.00;99.90;;;;;;5027816;28;20421;-85
2022/06/27 04:14:39;;;;;;;6.93;5.75;;;20.10;99.90;;;;;;5011907;28;20399;-83
2022/06/27 04:17:23;;;;;;;7.43;6.20;;;20.00;99.90;;;;;;5005375;28;20395;-83
2022/06/27 04:20:29;;;;;;;6.55;5.80;;;20.10;99.90;;;;;;5009877;28;20384;-85
2022/06/27 04:23:01;;;;;;;8.40;6.13;;;20.20;99.90;;;;;;4994241;28;20387;-85
2022/06/27 04:25:48;;;;;;;6.93;5.78;;;20.20;99.90;;;;;;5029912;28;20880;-84
2022/06/27 04:28:16;;;;;;;7.45;5.82;;;20.20;99.90;;;;;;5004064;28;20401;-85
2022/06/27 04:30:44;;;;;;;7.37;6.23;;;20.20;99.90;;;;;;4992532;28;20389;-85
2022/06/27 04:33:12;;;;;;;7.87;6.10;;;20.20;99.90;;;;;;4994091;28;20416;-84
2022/06/27 04:35:41;;;;;;;6.53;5.85;;;20.30;99.90;;;;;;5002801;28;20422;-84
2022/06/27 04:38:09;;;;;;;6.40;5.63;;;20.40;99.90;;;;;;4998887;28;20490;-84
2022/06/27 04:40:56;;;;;;;6.35;5.75;;;20.40;99.90;;;;;;5004579;28;20397;-84
2022/06/27 04:43:26;;;;;;;8.48;5.78;;;20.50;99.90;;;;;;4977452;28;20771;-84
2022/06/27 04:45:54;;;;;;;6.47;5.68;;;20.50;99.90;;;;;;5014803;28;20533;-86
2022/06/27 04:48:42;;;;;;;8.20;5.75;;;20.50;99.90;;;;;;5017654;28;20805;-85
2022/06/27 04:51:11;;;;;;;6.17;5.57;;;20.50;99.90;;;;;;5037460;28;20483;-85
2022/06/27 04:53:40;;;;;;;6.10;5.50;;;20.60;99.90;;;;;;4992138;28;20404;-86
2022/06/27 04:56:09;;;;;;;7.40;5.78;;;20.60;99.90;;;;;;5007232;28;20882;-86
2022/06/27 04:58:36;;;;;;;6.60;6.00;;;20.70;99.90;;;;;;5008579;28;20486;-85
2022/06/27 05:01:05;;;;;;;8.00;6.45;;;20.70;99.90;;;;;;5023686;28;20472;-84
2022/06/27 05:03:48;;;;;;;7.25;6.28;;;20.80;99.90;;;;;;5007178;28;20400;-85
2022/06/27 05:06:24;;;;;;;8.15;6.25;;;20.90;99.90;;;;;;5023511;28;20763;-85
2022/06/27 05:08:52;;;;;;;7.80;6.68;;;21.00;99.90;;;;;;4990743;28;20409;-85
2022/06/27 05:11:20;;;;;;;6.97;6.28;;;21.00;99.90;;;;;;5010167;28;20411;-86
2022/06/27 05:13:48;;;;;;;7.85;6.50;;;21.10;99.90;;;;;;5042673;28;20407;-85
2022/06/27 05:16:28;;;;;;;7.85;6.15;;;21.10;99.90;;;;;;4990883;28;20405;-84
2022/06/27 05:18:55;;;;;;;7.20;6.50;;;21.20;99.90;;;;;;5025988;28;20391;-85
2022/06/27 05:21:44;;;;;;;10.30;6.50;;;21.30;99.90;;;;;;5020234;28;20415;-85
2022/06/27 05:24:12;;;;;;;8.25;6.28;;;21.30;99.90;;;;;;4985421;28;20408;-85
2022/06/27 05:26:40;;;;;;;7.65;6.40;;;21.40;99.90;;;;;;5005326;28;20807;-86
2022/06/27 05:29:08;;;;;;;8.38;6.30;;;21.40;99.90;;;;;;5004351;28;20410;-86
2022/06/27 05:31:35;;;;;;;8.00;6.22;;;21.50;99.90;;;;;;4996610;28;20400;-86
2022/06/27 05:34:03;;;;;;;9.90;6.22;;;21.50;99.90;;;;;;4996844;28;20405;-86
2022/06/27 05:36:31;;;;;;;18.33;13.30;;;21.50;99.90;;;;;;4991873;28;20395;-85
2022/06/27 05:38:59;;;;;;;11.48;7.60;;;21.70;99.90;;;;;;5006632;28;20428;-85
2022/06/27 05:41:27;;;;;;;13.13;8.07;;;21.70;99.90;;;;;;5030520;28;20774;-85
2022/06/27 05:44:00;;;;;;;16.38;9.20;;;21.80;99.90;;;;;;5009894;28;20494;-86
2022/06/27 05:46:28;;;;;;;10.38;8.73;;;22.00;99.90;;;;;;5000093;28;20430;-85
2022/06/27 05:49:15;;;;;;;11.05;8.35;;;22.20;99.90;;;;;;4990845;28;20451;-85
2022/06/27 05:51:50;;;;;;;11.23;7.47;;;22.20;99.90;;;;;;5007147;28;20410;-85
2022/06/27 05:54:18;;;;;;;9.80;6.97;;;22.30;99.90;;;;;;5025030;28;20764;-85
2022/06/27 05:56:46;;;;;;;8.85;7.13;;;22.30;99.90;;;;;;4995194;28;20834;-85
2022/06/27 05:59:14;;;;;;;9.13;6.70;;;22.30;99.90;;;;;;5033540;28;20449;-85
2022/06/27 06:01:43;;;;;;;10.85;6.63;;;22.50;99.90;;;;;;5010381;28;20476;-86
2022/06/27 06:04:12;;;;;;;8.15;6.55;;;22.80;99.90;;;;;;4995081;28;20793;-85
2022/06/27 06:06:40;;;;;;;7.37;6.30;;;22.70;99.90;;;;;;5010040;28;20405;-86
2022/06/27 06:09:08;;;;;;;6.72;5.93;;;22.80;99.90;;;;;;5003415;28;20469;-85
2022/06/27 06:11:36;;;;;;;7.18;6.47;;;22.90;99.90;;;;;;5010195;28;20999;-85
2022/06/27 06:14:04;;;;;;;7.00;6.30;;;22.80;99.90;;;;;;4999116;28;20440;-86
2022/06/27 06:16:32;;;;;;;7.28;6.57;;;22.70;99.90;;;;;;4994075;28;20404;-85
2022/06/27 06:19:00;;;;;;;10.98;8.23;;;22.80;99.90;;;;;;4994968;28;20470;-85
2022/06/27 06:21:28;;;;;;;8.63;6.68;;;22.80;99.90;;;;;;5007667;28;20455;-86
2022/06/27 06:23:57;;;;;;;7.32;6.20;;;22.90;99.90;;;;;;5041257;28;20410;-85
2022/06/27 06:26:25;;;;;;;7.47;6.53;;;23.00;99.90;;;;;;5029472;28;20405;-85
2022/06/27 06:28:54;;;;;;;9.15;7.55;;;23.30;99.90;;;;;;5025560;28;20987;-85
2022/06/27 06:31:23;;;;;;;7.90;6.97;;;23.30;99.90;;;;;;4997645;28;20405;-85
2022/06/27 06:33:59;;;;;;;7.47;6.67;;;23.20;99.90;;;;;;5000744;28;20904;-85
2022/06/27 06:36:27;;;;;;;7.68;6.70;;;23.30;99.90;;;;;;5028470;28;20407;-85
2022/06/27 06:38:57;;;;;;;8.80;7.72;;;23.30;99.90;;;;;;5009287;28;20416;-85
2022/06/27 06:41:25;;;;;;;9.00;8.10;;;23.40;99.90;;;;;;5025793;28;20497;-85
2022/06/27 06:43:52;;;;;;;10.00;8.23;;;23.50;99.90;;;;;;5026044;28;20970;-85
2022/06/27 06:46:35;;;;;;;9.18;8.00;;;23.50;99.90;;;;;;5009241;28;20400;-85
2022/06/27 06:49:06;;;;;;;9.43;7.93;;;23.60;99.90;;;;;;5009096;28;20404;-85
2022/06/27 06:51:36;;;;;;;7.75;7.05;;;23.50;99.90;;;;;;4994555;28;20500;-85
2022/06/27 06:54:06;;;;;;;7.40;6.70;;;23.60;99.90;;;;;;4994090;28;20420;-85
2022/06/27 06:56:34;;;;;;;9.13;6.90;;;23.70;99.90;;;;;;4994109;28;20389;-84
2022/06/27 06:59:03;;;;;;;7.57;6.82;;;23.70;99.90;;;;;;4994543;28;20864;-85
2022/06/27 07:01:35;;;;;;;10.50;7.20;;;23.70;99.90;;;;;;5002803;28;20390;-86
2022/06/27 07:04:03;;;;;;;9.80;6.70;;;23.70;99.90;;;;;;5013010;28;20391;-85
2022/06/27 07:06:32;;;;;;;7.90;6.63;;;23.70;99.90;;;;;;5013110;28;20486;-86
2022/06/27 07:09:00;;;;;;;7.93;6.77;;;23.70;99.90;;;;;;5013211;28;20391;-85
2022/06/27 07:11:30;;;;;;;8.02;6.70;;;23.70;99.90;;;;;;5028286;28;20405;-86
2022/06/27 07:13:59;;;;;;;9.82;7.07;;;23.70;99.90;;;;;;5013059;28;20403;-85
2022/06/27 07:16:27;;;;;;;9.18;7.15;;;23.90;99.90;;;;;;5012922;28;20418;-85
2022/06/27 07:18:55;;;;;;;8.50;7.22;;;24.00;99.90;;;;;;5025295;28;20389;-85
2022/06/27 07:21:26;;;;;;;11.52;10.32;;;24.10;99.90;;;;;;4996477;28;20467;-85
2022/06/27 07:23:54;;;;;;;7.63;6.93;;;24.10;99.90;;;;;;5035900;28;20486;-86
2022/06/27 07:26:23;;;;;;;7.30;6.57;;;24.10;99.90;;;;;;4997360;28;20756;-86
2022/06/27 07:28:51;;;;;;;7.05;6.32;;;24.20;99.90;;;;;;5044471;28;20387;-86
2022/06/27 07:31:19;;;;;;;9.25;6.32;;;24.50;99.90;;;;;;5012766;28;20391;-85
2022/06/27 07:33:51;;;;;;;8.40;5.97;;;24.40;99.90;;;;;;5011591;28;20399;-85
2022/06/27 07:36:20;;;;;;;7.88;7.18;;;24.40;99.90;;;;;;5012771;28;20798;-85
2022/06/27 07:38:53;;;;;;;7.30;6.50;;;24.40;99.90;;;;;;5043872;28;20406;-86
2022/06/27 07:41:22;;;;;;;9.40;7.20;;;24.40;99.90;;;;;;5028161;28;20434;-85
2022/06/27 07:43:50;;;;;;;11.00;7.75;;;24.40;99.90;;;;;;5011370;28;20487;-85
2022/06/27 07:46:20;;;;;;;7.93;7.23;;;24.60;99.90;;;;;;5012480;28;20848;-86
2022/06/27 07:48:50;;;;;;;8.65;7.85;;;24.60;99.90;;;;;;5011129;28;20398;-86
2022/06/27 07:51:19;;;;;;;11.50;7.57;;;24.60;99.90;;;;;;5005728;28;20389;-85
2022/06/27 07:53:50;;;;;;;10.27;7.67;;;24.60;99.90;;;;;;4982988;28;20507;-86
2022/06/27 07:56:20;;;;;;;9.10;8.15;;;24.60;99.90;;;;;;5009631;28;20403;-86
2022/06/27 07:59:10;;;;;;;8.90;8.00;;;24.80;99.90;;;;;;4992368;28;20448;-85
2022/06/27 08:01:38;;;;;;;9.30;8.10;;;24.80;99.90;;;;;;5007632;28;20401;-86
2022/06/27 08:04:08;;;;;;;8.90;8.00;;;24.90;99.90;;;;;;4992081;28;20459;-86
2022/06/27 08:06:35;;;;;;;8.63;7.83;;;25.00;99.90;;;;;;4992150;28;20401;-85
2022/06/27 08:09:05;;;;;;;8.75;7.70;;;25.00;99.90;;;;;;5007967;28;20895;-85
2022/06/27 08:11:34;;;;;;;8.90;8.00;;;25.10;99.90;;;;;;5023883;28;20883;-85
2022/06/27 08:14:07;;;;;;;9.43;8.43;;;25.10;99.90;;;;;;5027651;28;20417;-86
2022/06/27 08:16:37;;;;;;;9.82;8.82;;;25.20;99.90;;;;;;5009669;28;20409;-85
2022/06/27 08:19:05;;;;;;;9.80;8.80;;;25.30;99.90;;;;;;5027561;28;20402;-86
2022/06/27 08:21:35;;;;;;;9.35;8.52;;;25.30;99.90;;;;;;5011847;28;20470;-86
2022/06/27 08:24:07;;;;;;;9.55;8.57;;;25.30;99.90;;;;;;5011878;28;20397;-87
2022/06/27 08:26:35;;;;;;;9.93;8.90;;;25.60;99.90;;;;;;5020540;28;20405;-86
2022/06/27 08:29:05;;;;;;;9.52;7.90;;;25.60;99.90;;;;;;5029078;28;20425;-88
2022/06/27 08:31:34;;;;;;;9.82;8.82;;;25.60;99.90;;;;;;5010710;28;20406;-85
2022/06/27 08:34:03;;;;;;;13.27;9.03;;;25.60;99.90;;;;;;5010961;28;20403;-86
2022/06/27 08:36:33;;;;;;;12.32;8.13;;;25.60;99.90;;;;;;5011549;28;20383;-86
2022/06/27 08:39:05;;;;;;;11.43;8.43;;;25.60;99.90;;;;;;5025493;28;20401;-86
2022/06/27 08:41:33;;;;;;;9.60;8.47;;;25.60;99.90;;;;;;5046572;28;20958;-86
2022/06/27 08:44:01;;;;;;;14.65;7.80;;;25.60;99.90;;;;;;5011757;28;20747;-87
2022/06/27 08:46:30;;;;;;;8.38;7.55;;;25.70;99.90;;;;;;5021992;28;20391;-88
2022/06/27 08:48:58;;;;;;;9.23;7.65;;;25.70;99.90;;;;;;5013742;28;20408;-86
2022/06/27 08:51:27;;;;;;;9.15;7.78;;;25.90;99.90;;;;;;5025835;28;20506;-85
2022/06/27 08:53:55;;;;;;;9.05;7.82;;;26.00;99.90;;;;;;5039321;28;20464;-88
2022/06/27 08:56:24;;;;;;;9.40;7.85;;;26.00;99.90;;;;;;5029780;28;20397;-88
2022/06/27 08:58:55;;;;;;;10.30;9.27;;;26.00;99.90;;;;;;5014510;28;20391;-88
2022/06/27 09:01:24;;;;;;;10.18;9.23;;;26.20;99.90;;;;;;5006377;28;20387;-87
2022/06/27 09:04:06;;;;;;;11.13;8.45;;;26.10;99.90;;;;;;5005690;28;20480;-88
2022/06/27 09:06:44;;;;;;;9.88;8.90;;;26.10;99.90;;;;;;5041731;28;20406;-88
2022/06/27 09:09:15;;;;;;;9.70;8.60;;;26.30;99.90;;;;;;5038061;28;20401;-87
2022/06/27 09:11:44;;;;;;;9.73;8.40;;;26.30;99.90;;;;;;5024631;28;20425;-88
2022/06/27 09:14:39;;;;;;;10.10;8.98;;;26.40;99.90;;;;;;5019355;28;20403;-89
2022/06/27 09:17:12;;;;;;;10.48;8.75;;;26.40;99.90;;;;;;5040114;28;20383;-89
2022/06/27 09:19:46;;;;;;;9.63;8.40;;;26.40;99.90;;;;;;5026577;28;20403;-88
2022/06/27 09:22:15;;;;;;;9.43;8.50;;;26.50;99.90;;;;;;5038149;28;20856;-88
2022/06/27 09:25:20;;;;;;;10.10;9.10;;;26.50;99.90;;;;;;5027384;28;20864;-87
2022/06/27 09:27:51;;;;;;;10.32;8.60;;;26.60;99.90;;;;;;4985028;28;20403;-88
2022/06/27 09:30:21;;;;;;;9.82;8.93;;;26.60;99.90;;;;;;5030826;28;20397;-88
2022/06/27 09:32:56;;;;;;;11.57;9.27;;;26.40;99.90;;;;;;5013965;28;20461;-85
2022/06/27 09:35:32;;;;;;;10.40;9.40;;;26.30;99.90;;;;;;5031001;28;20387;-89
2022/06/27 09:38:02;;;;;;;13.75;9.18;;;26.40;99.90;;;;;;5018119;28;20413;-87
2022/06/27 09:40:33;;;;;;;9.82;8.98;;;26.30;99.90;;;;;;5019081;28;20763;-87
2022/06/27 09:43:06;;;;;;;10.07;9.07;;;26.20;99.90;;;;;;5012568;28;20459;-88
2022/06/27 09:45:34;;;;;;;10.15;9.07;;;26.40;99.90;;;;;;5020866;28;20401;-89
2022/06/27 09:48:05;;;;;;;10.13;8.95;;;26.60;99.90;;;;;;5047904;28;20489;-84
2022/06/27 09:50:37;;;;;;;16.95;9.57;;;26.80;99.90;;;;;;5013565;28;20387;-87
2022/06/27 09:53:06;;;;;;;11.38;8.98;;;26.80;99.90;;;;;;5011818;28;20397;-88
2022/06/27 09:55:34;;;;;;;9.35;8.45;;;26.90;99.90;;;;;;5011579;28;20401;-89
2022/06/27 09:58:03;;;;;;;9.70;8.70;;;26.80;99.90;;;;;;5028121;28;20407;-89
2022/06/27 10:00:32;;;;;;;10.77;8.80;;;26.90;99.90;;;;;;5011222;28;20935;-88
2022/06/27 10:03:01;;;;;;;13.57;8.88;;;27.10;99.90;;;;;;4999652;28;20889;-89
2022/06/27 10:05:29;;;;;;;10.55;8.45;;;27.10;99.90;;;;;;5047638;28;20387;-87
2022/06/27 10:07:59;;;;;;;9.25;8.32;;;27.30;99.90;;;;;;5014547;28;20395;-89
2022/06/27 10:10:31;;;;;;;10.15;8.55;;;27.30;99.90;;;;;;5014774;28;20406;-90
2022/06/27 10:13:01;;;;;;;9.70;8.60;;;27.40;99.90;;;;;;5000777;28;20398;-92
2022/06/27 10:15:33;;;;;;;10.20;8.77;;;27.50;99.90;;;;;;5011363;28;20397;-88
2022/06/27 10:18:02;;;;;;;18.85;8.90;;;27.60;99.90;;;;;;5027946;28;20447;-90
2022/06/27 10:20:31;;;;;;;9.30;8.40;;;27.40;99.90;;;;;;4995096;28;20404;-89
2022/06/27 10:23:11;;;;;;;10.73;9.27;;;27.40;99.90;;;;;;5011637;28;20488;-88
2022/06/27 10:25:46;;;;;;;10.30;8.90;;;27.30;99.90;;;;;;5027469;28;20451;-87
2022/06/27 10:28:16;;;;;;;9.90;8.90;;;27.30;99.90;;;;;;4993922;28;20403;-86
2022/06/27 10:30:55;;;;;;;9.38;8.48;;;27.30;99.90;;;;;;5008414;28;20420;-85
2022/06/27 10:33:25;;;;;;;9.85;8.55;;;27.20;99.90;;;;;;5006879;28;20405;-87
2022/06/27 10:36:02;;;;;;;16.45;13.68;;;27.00;99.90;;;;;;5017010;28;20764;-86
2022/06/27 10:38:59;;;;;;;10.30;9.15;;;27.10;99.90;;;;;;5030321;28;20412;-87
2022/06/27 10:41:27;;;;;;;11.00;8.30;;;27.10;99.90;;;;;;4992127;28;20891;-87
2022/06/27 10:43:56;;;;;;;13.63;8.88;;;27.40;99.90;;;;;;5012714;28;20397;-87
2022/06/27 10:46:24;;;;;;;9.70;8.70;;;27.70;99.90;;;;;;4995642;28;20962;-87
2022/06/27 10:48:54;;;;;;;9.48;8.32;;;27.70;99.90;;;;;;5030473;28;20493;-87
2022/06/27 10:51:27;;;;;;;9.10;8.20;;;27.60;99.90;;;;;;5004402;28;20455;-86
2022/06/27 10:54:06;;;;;;;14.43;10.30;;;27.70;99.90;;;;;;5020167;28;20956;-86
2022/06/27 10:56:39;;;;;;;10.75;9.65;;;27.80;99.90;;;;;;5006899;28;20482;-86
2022/06/27 10:59:13;;;;;;;9.80;8.90;;;27.60;99.90;;;;;;5027406;28;20403;-86
2022/06/27 11:02:00;;;;;;;9.65;8.85;;;27.60;99.90;;;;;;5009236;28;20440;-86
2022/06/27 11:04:31;;;;;;;10.25;9.13;;;27.50;99.90;;;;;;5010079;28;20439;-85
2022/06/27 11:07:01;;;;;;;9.85;8.95;;;27.50;99.90;;;;;;5007619;28;20412;-86
2022/06/27 11:09:35;;;;;;;9.13;8.32;;;27.60;99.90;;;;;;5027462;28;20388;-86
2022/06/27 11:12:05;;;;;;;9.40;8.50;;;27.70;99.90;;;;;;4999299;28;20559;-86
2022/06/27 11:14:49;;;;;;;9.88;8.93;;;28.00;99.90;;;;;;5007116;28;20420;-87
2022/06/27 11:17:39;;;;;;;9.53;8.53;;;28.10;99.90;;;;;;5043458;28;20669;-86
2022/06/27 11:20:12;;;;;;;12.75;8.68;;;28.20;99.90;;;;;;5023171;28;20788;-86
2022/06/27 11:23:01;;;;;;;12.93;9.13;;;28.20;99.90;;;;;;4993986;28;20737;-86
2022/06/27 11:25:30;;;;;;;11.30;8.57;;;28.20;99.90;;;;;;5012103;28;20402;-87
2022/06/27 11:31:57;;;;;;;15.15;8.88;;;28.30;99.90;;;;;;4999825;28;20419;-86
2022/06/27 11:33:36;;;;;;;8.93;8.10;;;28.50;99.90;;;;;;4992542;28;20405;-86
2022/06/27 11:36:04;;;;;;;8.57;7.78;;;28.60;99.90;;;;;;4993899;28;20409;-87
2022/06/27 11:38:40;;;;;;;8.95;8.15;;;28.70;99.90;;;;;;5011099;28;20776;-87
2022/06/27 11:41:10;;;;;;;9.30;8.30;;;28.80;99.90;;;;;;4995050;28;20903;-86
2022/06/27 11:43:51;;;;;;;9.93;7.93;;;28.90;99.90;;;;;;4999265;28;20912;-86
2022/06/27 11:46:28;;;;;;;8.50;7.70;;;29.00;99.90;;;;;;4997630;28;20922;-87
2022/06/27 11:48:59;;;;;;;9.43;7.85;;;28.80;99.90;;;;;;5002684;28;20399;-85
2022/06/27 11:51:33;;;;;;;8.93;8.02;;;28.80;99.90;;;;;;5025210;28;20413;-86
2022/06/27 11:54:08;;;;;;;8.73;7.93;;;28.90;99.90;;;;;;5028339;28;20433;-86
2022/06/27 11:56:39;;;;;;;9.93;8.40;;;29.00;99.90;;;;;;5003039;28;20402;-87
2022/06/27 11:59:10;;;;;;;8.43;7.63;;;29.00;99.90;;;;;;4999980;28;20431;-86
2022/06/27 12:01:52;;;;;;;8.60;7.70;;;28.90;99.90;;;;;;5025084;28;20492;-87
2022/06/27 12:04:26;;;;;;;8.75;7.97;;;29.10;99.90;;;;;;4998128;28;20404;-87
2022/06/27 12:06:56;;;;;;;9.15;8.30;;;29.20;99.90;;;;;;5006603;28;20779;-86
2022/06/27 12:09:26;;;;;;;9.43;7.93;;;29.10;99.90;;;;;;4993816;28;20432;-86
2022/06/27 12:12:04;;;;;;;8.68;7.93;;;29.30;99.90;;;;;;5002913;28;20489;-86
2022/06/27 12:14:44;;;;;;;9.37;8.37;;;29.50;99.90;;;;;;5024724;28;20467;-86
2022/06/27 12:17:12;;;;;;;9.32;8.38;;;29.50;99.90;;;;;;5004066;28;20482;-85
2022/06/27 12:19:41;;;;;;;9.27;8.43;;;29.30;99.90;;;;;;5008345;28;20461;-86
2022/06/27 12:22:12;;;;;;;9.60;8.65;;;29.10;99.90;;;;;;4999930;28;20493;-87
2022/06/27 12:25:00;;;;;;;9.05;8.05;;;29.30;99.90;;;;;;4995477;28;20954;-86
2022/06/27 12:27:28;;;;;;;9.38;8.43;;;29.40;99.90;;;;;;5024490;28;20401;-86
2022/06/27 12:29:56;;;;;;;9.45;8.55;;;29.50;99.90;;;;;;5003217;28;20460;-86
2022/06/27 12:32:23;;;;;;;9.40;8.50;;;29.60;99.90;;;;;;5004280;28;20401;-85
2022/06/27 12:34:51;;;;;;;9.43;8.43;;;29.40;99.90;;;;;;5023931;28;20575;-86
2022/06/27 12:37:18;;;;;;;9.20;8.30;;;29.40;99.90;;;;;;5005906;28;20762;-83
2022/06/27 12:39:47;;;;;;;10.57;8.90;;;29.50;99.90;;;;;;5007836;28;20459;-85
2022/06/27 12:42:15;;;;;;;9.48;8.57;;;29.80;99.90;;;;;;5040079;28;20391;-86
2022/06/27 12:44:43;;;;;;;10.30;8.40;;;29.60;99.90;;;;;;5005623;28;20505;-85
2022/06/27 12:47:10;;;;;;;9.73;8.82;;;29.70;99.90;;;;;;5009955;28;20415;-85
2022/06/27 12:49:40;;;;;;;9.82;8.85;;;29.80;99.90;;;;;;5042283;28;20393;-85
2022/06/27 12:52:08;;;;;;;9.50;8.50;;;30.10;99.90;;;;;;5006985;28;20386;-85
2022/06/27 12:54:36;;;;;;;10.03;9.00;;;30.00;99.90;;;;;;5006278;28;20417;-87
2022/06/27 12:57:06;;;;;;;9.45;8.55;;;30.10;99.90;;;;;;5008217;28;20403;-86
2022/06/27 12:59:34;;;;;;;8.85;8.10;;;30.30;99.90;;;;;;5012190;28;20819;-86
2022/06/27 13:02:02;;;;;;;9.73;8.73;;;30.40;99.90;;;;;;5019378;28;20398;-87
2022/06/27 13:04:33;;;;;;;9.90;9.00;;;30.60;99.90;;;;;;5035690;28;20753;-86
2022/06/27 13:07:01;;;;;;;9.80;8.80;;;30.60;99.90;;;;;;5026547;28;20414;-86
2022/06/27 13:09:29;;;;;;;9.48;8.57;;;30.60;99.90;;;;;;5010083;28;20394;-86